White Sulphur Springs, New York
Current Conditions -  °F | °C
As of 2:15 PM on Thursday 30 Oct 2014 (Local Time) from KMSV Reporting Station
Overcast Overcast  
Wind Chill: 42°   Ceiling: 3200
Heat Index: 46°   Visibility: 10mi
Dew Point: 36°   Wind: 9mph
Humidity: 66%   Direction: 300°WNW
Pressure: 29.99"   Gusts: NA
Location:  41.8°N, 74.83°W
Report Text: KMSV 301815Z AUTO 30008KT 10SM OVC032 08/02 A2999 RMK AO1
Loading
Personal Weather Stations






























Interactive Weather Map New forecast layout! Learn more

10-Day Weather Forecast

Advertisements
Track Severe Weather on mobile